sensor_id;sensor_type;location;lat;lon;timestamp;temperature;humidity
3348;DHT22;1687;49.540;8.574;2023-04-01T00:00:55;12.10;91.00
3348;DHT22;1687;49.540;8.574;2023-04-01T00:03:23;12.10;90.70
3348;DHT22;1687;49.540;8.574;2023-04-01T00:05:49;12.00;90.70
3348;DHT22;1687;49.540;8.574;2023-04-01T00:08:16;12.10;91.00
3348;DHT22;1687;49.540;8.574;2023-04-01T00:10:42;12.10;90.80
3348;DHT22;1687;49.540;8.574;2023-04-01T00:13:08;12.00;90.50
3348;DHT22;1687;49.540;8.574;2023-04-01T00:15:34;12.10;90.70
3348;DHT22;1687;49.540;8.574;2023-04-01T00:18:01;12.00;90.60
3348;DHT22;1687;49.540;8.574;2023-04-01T00:20:27;12.00;90.50
3348;DHT22;1687;49.540;8.574;2023-04-01T00:22:53;12.00;90.50
3348;DHT22;1687;49.540;8.574;2023-04-01T00:25:19;12.00;90.60
3348;DHT22;1687;49.540;8.574;2023-04-01T00:27:45;12.00;90.60
3348;DHT22;1687;49.540;8.574;2023-04-01T00:30:10;12.00;90.60
3348;DHT22;1687;49.540;8.574;2023-04-01T00:32:36;12.00;90.70
3348;DHT22;1687;49.540;8.574;2023-04-01T00:35:03;12.10;90.60
3348;DHT22;1687;49.540;8.574;2023-04-01T00:37:30;12.10;90.50
3348;DHT22;1687;49.540;8.574;2023-04-01T00:39:56;12.00;90.40
3348;DHT22;1687;49.540;8.574;2023-04-01T00:42:22;12.00;90.50
3348;DHT22;1687;49.540;8.574;2023-04-01T00:44:51;12.10;90.60
3348;DHT22;1687;49.540;8.574;2023-04-01T00:47:18;12.10;90.50
3348;DHT22;1687;49.540;8.574;2023-04-01T00:49:50;12.10;90.30
3348;DHT22;1687;49.540;8.574;2023-04-01T00:52:22;12.10;90.20
3348;DHT22;1687;49.540;8.574;2023-04-01T00:54:54;12.10;90.20
3348;DHT22;1687;49.540;8.574;2023-04-01T00:57:27;12.10;90.40
3348;DHT22;1687;49.540;8.574;2023-04-01T00:59:58;12.10;90.30
3348;DHT22;1687;49.540;8.574;2023-04-01T01:02:25;12.10;90.10
3348;DHT22;1687;49.540;8.574;2023-04-01T01:04:51;12.10;90.10
3348;DHT22;1687;49.540;8.574;2023-04-01T01:12:39;12.10;90.10
3348;DHT22;1687;49.540;8.574;2023-04-01T01:23:46;12.00;89.60
3348;DHT22;1687;49.540;8.574;2023-04-01T01:29:54;12.00;89.60
3348;DHT22;1687;49.540;8.574;2023-04-01T01:32:55;12.00;89.70
3348;DHT22;1687;49.540;8.574;2023-04-01T01:35:57;12.10;90.00
3348;DHT22;1687;49.540;8.574;2023-04-01T01:38:28;12.20;89.50
3348;DHT22;1687;49.540;8.574;2023-04-01T01:40:57;12.20;89.50
3348;DHT22;1687;49.540;8.574;2023-04-01T01:43:33;12.10;89.30
3348;DHT22;1687;49.540;8.574;2023-04-01T01:46:07;12.10;88.90
3348;DHT22;1687;49.540;8.574;2023-04-01T01:48:37;12.10;89.10
3348;DHT22;1687;49.540;8.574;2023-04-01T01:51:05;12.10;88.50
3348;DHT22;1687;49.540;8.574;2023-04-01T01:53:31;12.10;89.00
3348;DHT22;1687;49.540;8.574;2023-04-01T01:55:57;12.10;88.40
3348;DHT22;1687;49.540;8.574;2023-04-01T01:58:43;12.20;89.00
3348;DHT22;1687;49.540;8.574;2023-04-01T02:01:17;12.10;88.30
3348;DHT22;1687;49.540;8.574;2023-04-01T02:03:46;12.10;88.20
3348;DHT22;1687;49.540;8.574;2023-04-01T02:06:16;12.10;88.10
3348;DHT22;1687;49.540;8.574;2023-04-01T02:08:51;12.10;88.00
3348;DHT22;1687;49.540;8.574;2023-04-01T02:11:26;12.10;88.20
3348;DHT22;1687;49.540;8.574;2023-04-01T02:14:01;12.10;87.60
3348;DHT22;1687;49.540;8.574;2023-04-01T02:16:45;12.00;87.50
3348;DHT22;1687;49.540;8.574;2023-04-01T02:19:16;12.00;87.60
3348;DHT22;1687;49.540;8.574;2023-04-01T02:21:53;12.10;87.50
3348;DHT22;1687;49.540;8.574;2023-04-01T02:24:22;12.10;87.40
3348;DHT22;1687;49.540;8.574;2023-04-01T02:26:51;12.10;87.20
3348;DHT22;1687;49.540;8.574;2023-04-01T02:29:20;12.10;87.00
3348;DHT22;1687;49.540;8.574;2023-04-01T02:31:48;12.10;87.20
3348;DHT22;1687;49.540;8.574;2023-04-01T02:34:15;12.10;86.60
3348;DHT22;1687;49.540;8.574;2023-04-01T02:36:41;12.00;87.00
3348;DHT22;1687;49.540;8.574;2023-04-01T02:39:08;12.10;86.70
3348;DHT22;1687;49.540;8.574;2023-04-01T02:41:42;12.00;86.40
3348;DHT22;1687;49.540;8.574;2023-04-01T02:44:10;12.00;86.30
3348;DHT22;1687;49.540;8.574;2023-04-01T02:46:36;12.00;86.20
3348;DHT22;1687;49.540;8.574;2023-04-01T02:49:03;12.00;86.10
3348;DHT22;1687;49.540;8.574;2023-04-01T02:51:29;12.00;86.00
3348;DHT22;1687;49.540;8.574;2023-04-01T02:53:55;12.00;86.00
3348;DHT22;1687;49.540;8.574;2023-04-01T02:56:20;12.00;85.90
3348;DHT22;1687;49.540;8.574;2023-04-01T02:58:47;12.00;85.90
3348;DHT22;1687;49.540;8.574;2023-04-01T03:01:13;12.00;85.70
3348;DHT22;1687;49.540;8.574;2023-04-01T03:03:39;12.00;85.50
3348;DHT22;1687;49.540;8.574;2023-04-01T03:06:09;12.00;85.40
3348;DHT22;1687;49.540;8.574;2023-04-01T03:08:37;12.00;85.20
3348;DHT22;1687;49.540;8.574;2023-04-01T03:11:03;11.90;85.10
3348;DHT22;1687;49.540;8.574;2023-04-01T03:13:28;11.90;85.10
3348;DHT22;1687;49.540;8.574;2023-04-01T03:15:54;11.90;85.20
3348;DHT22;1687;49.540;8.574;2023-04-01T03:18:20;11.80;85.00
3348;DHT22;1687;49.540;8.574;2023-04-01T03:20:46;11.80;85.40
3348;DHT22;1687;49.540;8.574;2023-04-01T03:23:12;11.90;85.20
3348;DHT22;1687;49.540;8.574;2023-04-01T03:25:38;11.80;85.20
3348;DHT22;1687;49.540;8.574;2023-04-01T03:28:04;11.80;85.30
3348;DHT22;1687;49.540;8.574;2023-04-01T03:30:30;11.80;85.10
3348;DHT22;1687;49.540;8.574;2023-04-01T03:32:57;11.80;85.60
3348;DHT22;1687;49.540;8.574;2023-04-01T03:35:23;11.80;85.30
3348;DHT22;1687;49.540;8.574;2023-04-01T03:37:53;11.80;85.10
3348;DHT22;1687;49.540;8.574;2023-04-01T03:40:19;11.80;85.30
3348;DHT22;1687;49.540;8.574;2023-04-01T03:42:46;11.80;85.30
3348;DHT22;1687;49.540;8.574;2023-04-01T03:45:12;11.80;85.40
3348;DHT22;1687;49.540;8.574;2023-04-01T03:47:38;11.80;85.40
3348;DHT22;1687;49.540;8.574;2023-04-01T03:50:06;11.80;85.60
3348;DHT22;1687;49.540;8.574;2023-04-01T03:52:32;11.80;85.30
3348;DHT22;1687;49.540;8.574;2023-04-01T03:54:58;11.70;85.20
3348;DHT22;1687;49.540;8.574;2023-04-01T03:57:24;11.70;85.50
3348;DHT22;1687;49.540;8.574;2023-04-01T03:59:50;11.70;85.70
3348;DHT22;1687;49.540;8.574;2023-04-01T04:02:15;11.80;85.80
3348;DHT22;1687;49.540;8.574;2023-04-01T04:04:42;11.80;85.80
3348;DHT22;1687;49.540;8.574;2023-04-01T04:07:08;11.80;85.90
3348;DHT22;1687;49.540;8.574;2023-04-01T04:09:33;11.80;85.70
3348;DHT22;1687;49.540;8.574;2023-04-01T04:12:00;11.80;85.50
3348;DHT22;1687;49.540;8.574;2023-04-01T04:14:26;11.80;85.70
3348;DHT22;1687;49.540;8.574;2023-04-01T04:16:52;11.80;85.90
3348;DHT22;1687;49.540;8.574;2023-04-01T04:19:17;11.80;86.00
3348;DHT22;1687;49.540;8.574;2023-04-01T04:21:43;11.80;85.90
3348;DHT22;1687;49.540;8.574;2023-04-01T04:24:09;11.80;86.00
3348;DHT22;1687;49.540;8.574;2023-04-01T04:26:35;11.80;86.00
3348;DHT22;1687;49.540;8.574;2023-04-01T04:29:02;11.80;86.10
3348;DHT22;1687;49.540;8.574;2023-04-01T04:31:27;11.90;87.10
3348;DHT22;1687;49.540;8.574;2023-04-01T04:33:53;11.90;86.10
3348;DHT22;1687;49.540;8.574;2023-04-01T04:36:20;12.00;86.40
3348;DHT22;1687;49.540;8.574;2023-04-01T04:38:46;12.00;85.70
3348;DHT22;1687;49.540;8.574;2023-04-01T04:41:17;11.90;85.80
3348;DHT22;1687;49.540;8.574;2023-04-01T04:43:52;11.90;85.80
3348;DHT22;1687;49.540;8.574;2023-04-01T04:46:20;11.90;85.70
3348;DHT22;1687;49.540;8.574;2023-04-01T04:48:46;11.90;86.10
3348;DHT22;1687;49.540;8.574;2023-04-01T04:51:17;11.90;85.50
3348;DHT22;1687;49.540;8.574;2023-04-01T04:53:44;11.90;85.60
3348;DHT22;1687;49.540;8.574;2023-04-01T04:56:10;11.90;85.90
3348;DHT22;1687;49.540;8.574;2023-04-01T04:58:37;12.00;85.60
3348;DHT22;1687;49.540;8.574;2023-04-01T05:01:11;12.00;85.40
3348;DHT22;1687;49.540;8.574;2023-04-01T05:03:38;12.00;85.40
3348;DHT22;1687;49.540;8.574;2023-04-01T05:06:05;11.90;85.10
3348;DHT22;1687;49.540;8.574;2023-04-01T05:08:32;12.00;85.60
3348;DHT22;1687;49.540;8.574;2023-04-01T05:10:58;12.00;85.50
3348;DHT22;1687;49.540;8.574;2023-04-01T05:13:24;12.00;85.10
3348;DHT22;1687;49.540;8.574;2023-04-01T05:15:50;11.90;84.40
3348;DHT22;1687;49.540;8.574;2023-04-01T05:18:16;11.80;84.80
3348;DHT22;1687;49.540;8.574;2023-04-01T05:20:47;11.70;85.00
3348;DHT22;1687;49.540;8.574;2023-04-01T05:23:14;11.80;85.40
3348;DHT22;1687;49.540;8.574;2023-04-01T05:25:39;11.80;85.30
3348;DHT22;1687;49.540;8.574;2023-04-01T05:28:05;11.70;85.00
3348;DHT22;1687;49.540;8.574;2023-04-01T05:30:31;11.70;85.10
3348;DHT22;1687;49.540;8.574;2023-04-01T05:32:57;11.60;85.10
3348;DHT22;1687;49.540;8.574;2023-04-01T05:35:23;11.60;85.30
3348;DHT22;1687;49.540;8.574;2023-04-01T05:37:49;11.60;85.60
3348;DHT22;1687;49.540;8.574;2023-04-01T05:40:15;11.60;85.60
3348;DHT22;1687;49.540;8.574;2023-04-01T05:42:41;11.60;85.80
3348;DHT22;1687;49.540;8.574;2023-04-01T05:45:07;11.70;86.00
3348;DHT22;1687;49.540;8.574;2023-04-01T05:47:34;11.70;86.40
3348;DHT22;1687;49.540;8.574;2023-04-01T05:49:59;11.70;85.60
3348;DHT22;1687;49.540;8.574;2023-04-01T05:52:25;11.60;85.80
3348;DHT22;1687;49.540;8.574;2023-04-01T05:54:51;11.60;86.10
3348;DHT22;1687;49.540;8.574;2023-04-01T05:57:17;11.70;86.20
3348;DHT22;1687;49.540;8.574;2023-04-01T05:59:42;11.60;86.10
3348;DHT22;1687;49.540;8.574;2023-04-01T06:02:09;11.70;86.60
3348;DHT22;1687;49.540;8.574;2023-04-01T06:04:38;11.70;86.60
3348;DHT22;1687;49.540;8.574;2023-04-01T06:07:12;11.80;87.50
3348;DHT22;1687;49.540;8.574;2023-04-01T06:09:39;11.90;87.20
3348;DHT22;1687;49.540;8.574;2023-04-01T06:18:14;11.80;86.40
3348;DHT22;1687;49.540;8.574;2023-04-01T06:21:14;11.70;86.70
3348;DHT22;1687;49.540;8.574;2023-04-01T06:46:21;11.70;87.90
3348;DHT22;1687;49.540;8.574;2023-04-01T06:49:50;11.80;87.90
3348;DHT22;1687;49.540;8.574;2023-04-01T06:54:52;11.70;87.40
3348;DHT22;1687;49.540;8.574;2023-04-01T06:57:32;11.80;87.80
3348;DHT22;1687;49.540;8.574;2023-04-01T07:00:01;11.80;87.50
3348;DHT22;1687;49.540;8.574;2023-04-01T07:02:39;11.70;87.40
3348;DHT22;1687;49.540;8.574;2023-04-01T07:05:11;11.70;87.60
3348;DHT22;1687;49.540;8.574;2023-04-01T07:07:47;11.80;87.70
3348;DHT22;1687;49.540;8.574;2023-04-01T07:13:22;11.80;87.90
3348;DHT22;1687;49.540;8.574;2023-04-01T07:16:11;11.80;87.70
3348;DHT22;1687;49.540;8.574;2023-04-01T07:18:48;11.90;87.40
3348;DHT22;1687;49.540;8.574;2023-04-01T07:21:28;11.80;87.70
3348;DHT22;1687;49.540;8.574;2023-04-01T07:24:01;11.80;87.30
3348;DHT22;1687;49.540;8.574;2023-04-01T07:26:30;11.80;87.60
3348;DHT22;1687;49.540;8.574;2023-04-01T07:28:56;11.90;88.00
3348;DHT22;1687;49.540;8.574;2023-04-01T07:34:19;11.90;87.80
3348;DHT22;1687;49.540;8.574;2023-04-01T07:37:06;11.90;87.70
3348;DHT22;1687;49.540;8.574;2023-04-01T07:39:59;11.90;87.60
3348;DHT22;1687;49.540;8.574;2023-04-01T07:54:08;12.10;87.70
3348;DHT22;1687;49.540;8.574;2023-04-01T07:57:05;12.10;87.90
3348;DHT22;1687;49.540;8.574;2023-04-01T08:00:15;12.10;87.20
3348;DHT22;1687;49.540;8.574;2023-04-01T08:05:56;12.10;87.90
3348;DHT22;1687;49.540;8.574;2023-04-01T08:08:49;12.10;88.10
3348;DHT22;1687;49.540;8.574;2023-04-01T08:11:51;12.20;88.20
3348;DHT22;1687;49.540;8.574;2023-04-01T08:17:22;12.20;87.80
3348;DHT22;1687;49.540;8.574;2023-04-01T08:23:24;12.30;88.00
3348;DHT22;1687;49.540;8.574;2023-04-01T08:32:10;12.20;88.70
3348;DHT22;1687;49.540;8.574;2023-04-01T08:34:46;12.10;87.60
3348;DHT22;1687;49.540;8.574;2023-04-01T08:37:28;12.10;88.00
3348;DHT22;1687;49.540;8.574;2023-04-01T08:40:11;12.10;89.20
3348;DHT22;1687;49.540;8.574;2023-04-01T08:48:37;12.10;88.70
3348;DHT22;1687;49.540;8.574;2023-04-01T08:57:07;12.30;89.40
3348;DHT22;1687;49.540;8.574;2023-04-01T08:59:47;12.30;88.70
3348;DHT22;1687;49.540;8.574;2023-04-01T09:05:41;12.30;89.90
3348;DHT22;1687;49.540;8.574;2023-04-01T09:17:20;12.40;90.00
3348;DHT22;1687;49.540;8.574;2023-04-01T09:20:14;12.40;90.10
3348;DHT22;1687;49.540;8.574;2023-04-01T09:22:54;12.40;90.00
3348;DHT22;1687;49.540;8.574;2023-04-01T09:32:03;12.30;90.40
3348;DHT22;1687;49.540;8.574;2023-04-01T09:40:46;12.30;90.50
3348;DHT22;1687;49.540;8.574;2023-04-01T09:50:10;12.40;90.80
3348;DHT22;1687;49.540;8.574;2023-04-01T09:52:45;12.40;90.90
3348;DHT22;1687;49.540;8.574;2023-04-01T10:07:14;12.50;91.20
3348;DHT22;1687;49.540;8.574;2023-04-01T10:18:50;12.60;91.50
3348;DHT22;1687;49.540;8.574;2023-04-01T10:21:48;12.70;91.90
3348;DHT22;1687;49.540;8.574;2023-04-01T10:24:47;12.90;91.90
3348;DHT22;1687;49.540;8.574;2023-04-01T10:27:55;13.00;92.00
3348;DHT22;1687;49.540;8.574;2023-04-01T10:37:06;12.90;92.10
3348;DHT22;1687;49.540;8.574;2023-04-01T10:48:50;12.90;92.10
3348;DHT22;1687;49.540;8.574;2023-04-01T10:54:21;13.00;92.30
3348;DHT22;1687;49.540;8.574;2023-04-01T11:01:07;13.00;92.30
3348;DHT22;1687;49.540;8.574;2023-04-01T11:10:31;13.00;92.80
3348;DHT22;1687;49.540;8.574;2023-04-01T11:22:55;12.90;92.50
3348;DHT22;1687;49.540;8.574;2023-04-01T11:26:36;12.90;92.80
3348;DHT22;1687;49.540;8.574;2023-04-01T11:29:01;13.00;93.20
3348;DHT22;1687;49.540;8.574;2023-04-01T11:31:52;13.10;93.00
3348;DHT22;1687;49.540;8.574;2023-04-01T11:38:14;13.10;92.90
3348;DHT22;1687;49.540;8.574;2023-04-01T11:43:42;13.10;92.90
3348;DHT22;1687;49.540;8.574;2023-04-01T11:46:25;13.20;93.40
3348;DHT22;1687;49.540;8.574;2023-04-01T11:49:20;13.20;93.10
3348;DHT22;1687;49.540;8.574;2023-04-01T12:06:59;13.30;93.30
3348;DHT22;1687;49.540;8.574;2023-04-01T12:12:36;13.10;93.10
3348;DHT22;1687;49.540;8.574;2023-04-01T12:18:24;13.20;93.20
3348;DHT22;1687;49.540;8.574;2023-04-01T12:42:28;13.40;92.20
3348;DHT22;1687;49.540;8.574;2023-04-01T13:12:33;13.80;90.50
3348;DHT22;1687;49.540;8.574;2023-04-01T13:18:31;13.70;90.20
3348;DHT22;1687;49.540;8.574;2023-04-01T13:27:37;13.60;89.60
3348;DHT22;1687;49.540;8.574;2023-04-01T13:30:35;13.60;89.80
3348;DHT22;1687;49.540;8.574;2023-04-01T13:33:25;13.50;89.40
3348;DHT22;1687;49.540;8.574;2023-04-01T13:42:00;13.40;88.80
3348;DHT22;1687;49.540;8.574;2023-04-01T13:44:56;13.40;88.70
3348;DHT22;1687;49.540;8.574;2023-04-01T13:47:30;13.40;88.80
3348;DHT22;1687;49.540;8.574;2023-04-01T13:56:33;13.40;88.70
3348;DHT22;1687;49.540;8.574;2023-04-01T13:59:19;13.40;88.50
3348;DHT22;1687;49.540;8.574;2023-04-01T14:11:21;13.50;88.20
3348;DHT22;1687;49.540;8.574;2023-04-01T14:14:14;13.50;88.20
3348;DHT22;1687;49.540;8.574;2023-04-01T14:34:52;13.40;87.30
3348;DHT22;1687;49.540;8.574;2023-04-01T14:43:47;13.30;87.00
3348;DHT22;1687;49.540;8.574;2023-04-01T14:49:35;13.30;87.10
3348;DHT22;1687;49.540;8.574;2023-04-01T14:52:22;13.30;87.40
3348;DHT22;1687;49.540;8.574;2023-04-01T14:54:51;13.30;87.40
3348;DHT22;1687;49.540;8.574;2023-04-01T14:57:24;13.30;87.40
3348;DHT22;1687;49.540;8.574;2023-04-01T15:00:00;13.30;87.20
3348;DHT22;1687;49.540;8.574;2023-04-01T15:03:07;13.40;87.20
3348;DHT22;1687;49.540;8.574;2023-04-01T15:06:31;13.40;86.80
3348;DHT22;1687;49.540;8.574;2023-04-01T15:10:01;13.40;87.10
3348;DHT22;1687;49.540;8.574;2023-04-01T15:12:42;13.40;86.80
3348;DHT22;1687;49.540;8.574;2023-04-01T15:18:15;13.30;86.50
3348;DHT22;1687;49.540;8.574;2023-04-01T15:27:11;13.30;86.50
3348;DHT22;1687;49.540;8.574;2023-04-01T15:30:21;13.30;86.20
3348;DHT22;1687;49.540;8.574;2023-04-01T15:36:07;13.30;85.90
3348;DHT22;1687;49.540;8.574;2023-04-01T15:53:03;13.20;85.50
3348;DHT22;1687;49.540;8.574;2023-04-01T15:55:50;13.20;85.60
3348;DHT22;1687;49.540;8.574;2023-04-01T15:58:49;13.30;85.40
3348;DHT22;1687;49.540;8.574;2023-04-01T16:01:44;13.30;85.60
3348;DHT22;1687;49.540;8.574;2023-04-01T16:21:46;13.00;85.00
3348;DHT22;1687;49.540;8.574;2023-04-01T16:24:43;13.00;84.90
3348;DHT22;1687;49.540;8.574;2023-04-01T16:27:16;13.00;84.80
3348;DHT22;1687;49.540;8.574;2023-04-01T16:33:20;13.10;85.10
3348;DHT22;1687;49.540;8.574;2023-04-01T16:41:49;13.20;84.40
3348;DHT22;1687;49.540;8.574;2023-04-01T16:44:21;13.10;84.20
3348;DHT22;1687;49.540;8.574;2023-04-01T16:47:27;13.10;84.70
3348;DHT22;1687;49.540;8.574;2023-04-01T16:50:05;13.00;84.30
3348;DHT22;1687;49.540;8.574;2023-04-01T16:58:23;13.00;84.60
3348;DHT22;1687;49.540;8.574;2023-04-01T17:01:01;13.00;84.30
3348;DHT22;1687;49.540;8.574;2023-04-01T17:03:45;13.00;84.60
3348;DHT22;1687;49.540;8.574;2023-04-01T17:06:45;13.00;84.40
3348;DHT22;1687;49.540;8.574;2023-04-01T17:09:42;13.00;84.60
3348;DHT22;1687;49.540;8.574;2023-04-01T17:20:55;13.00;84.00
3348;DHT22;1687;49.540;8.574;2023-04-01T17:23:45;13.00;83.90
3348;DHT22;1687;49.540;8.574;2023-04-01T17:27:12;13.00;83.80
3348;DHT22;1687;49.540;8.574;2023-04-01T17:35:31;13.00;83.60
3348;DHT22;1687;49.540;8.574;2023-04-01T17:38:13;13.00;83.70
3348;DHT22;1687;49.540;8.574;2023-04-01T17:46:56;13.00;83.30
3348;DHT22;1687;49.540;8.574;2023-04-01T17:49:29;13.00;83.20
3348;DHT22;1687;49.540;8.574;2023-04-01T17:52:06;13.00;83.20
3348;DHT22;1687;49.540;8.574;2023-04-01T18:20:38;12.60;82.50
3348;DHT22;1687;49.540;8.574;2023-04-01T18:23:26;12.70;82.90
3348;DHT22;1687;49.540;8.574;2023-04-01T18:26:10;12.60;82.30
3348;DHT22;1687;49.540;8.574;2023-04-01T18:28:49;12.60;82.40
3348;DHT22;1687;49.540;8.574;2023-04-01T18:31:25;12.60;82.50
3348;DHT22;1687;49.540;8.574;2023-04-01T18:34:11;12.60;82.60
3348;DHT22;1687;49.540;8.574;2023-04-01T18:36:53;12.50;82.20
3348;DHT22;1687;49.540;8.574;2023-04-01T18:39:39;12.50;82.50
3348;DHT22;1687;49.540;8.574;2023-04-01T18:45:26;12.50;82.10
3348;DHT22;1687;49.540;8.574;2023-04-01T18:50:53;12.30;82.40
3348;DHT22;1687;49.540;8.574;2023-04-01T18:56:03;12.30;82.70
3348;DHT22;1687;49.540;8.574;2023-04-01T19:01:08;12.20;82.70
3348;DHT22;1687;49.540;8.574;2023-04-01T19:03:52;12.20;82.90
3348;DHT22;1687;49.540;8.574;2023-04-01T19:06:35;12.20;82.90
3348;DHT22;1687;49.540;8.574;2023-04-01T19:09:26;12.20;83.10
3348;DHT22;1687;49.540;8.574;2023-04-01T19:18:01;12.40;83.90
3348;DHT22;1687;49.540;8.574;2023-04-01T19:20:53;12.40;83.90
3348;DHT22;1687;49.540;8.574;2023-04-01T19:26:34;12.40;84.10
3348;DHT22;1687;49.540;8.574;2023-04-01T19:29:40;12.40;84.00
3348;DHT22;1687;49.540;8.574;2023-04-01T19:38:39;12.50;84.20
3348;DHT22;1687;49.540;8.574;2023-04-01T19:47:16;12.60;84.20
3348;DHT22;1687;49.540;8.574;2023-04-01T19:50:09;12.50;83.80
3348;DHT22;1687;49.540;8.574;2023-04-01T19:52:47;12.50;84.30
3348;DHT22;1687;49.540;8.574;2023-04-01T19:55:37;12.40;84.20
3348;DHT22;1687;49.540;8.574;2023-04-01T20:00:59;12.40;84.20
3348;DHT22;1687;49.540;8.574;2023-04-01T20:15:35;12.30;84.90
3348;DHT22;1687;49.540;8.574;2023-04-01T20:18:05;12.40;85.00
3348;DHT22;1687;49.540;8.574;2023-04-01T20:20:55;12.40;85.10
3348;DHT22;1687;49.540;8.574;2023-04-01T20:23:50;12.40;84.80
3348;DHT22;1687;49.540;8.574;2023-04-01T20:26:26;12.40;84.80
3348;DHT22;1687;49.540;8.574;2023-04-01T20:31:43;12.40;84.80
3348;DHT22;1687;49.540;8.574;2023-04-01T20:38:13;12.40;85.20
3348;DHT22;1687;49.540;8.574;2023-04-01T20:41:03;12.40;84.80
3348;DHT22;1687;49.540;8.574;2023-04-01T20:43:52;12.40;85.50
3348;DHT22;1687;49.540;8.574;2023-04-01T20:49:33;12.40;85.50
3348;DHT22;1687;49.540;8.574;2023-04-01T20:52:18;12.40;85.60
3348;DHT22;1687;49.540;8.574;2023-04-01T20:55:13;12.40;85.50
3348;DHT22;1687;49.540;8.574;2023-04-01T21:00:52;12.50;86.10
3348;DHT22;1687;49.540;8.574;2023-04-01T21:03:57;12.50;86.10
3348;DHT22;1687;49.540;8.574;2023-04-01T21:10:08;12.40;86.00
3348;DHT22;1687;49.540;8.574;2023-04-01T21:13:18;12.50;86.70
3348;DHT22;1687;49.540;8.574;2023-04-01T21:16:14;12.50;86.30
3348;DHT22;1687;49.540;8.574;2023-04-01T21:38:59;12.30;87.10
3348;DHT22;1687;49.540;8.574;2023-04-01T21:48:04;12.20;87.30
3348;DHT22;1687;49.540;8.574;2023-04-01T21:53:46;12.20;87.20
3348;DHT22;1687;49.540;8.574;2023-04-01T21:56:40;12.20;87.50
3348;DHT22;1687;49.540;8.574;2023-04-01T22:05:33;12.20;87.90
3348;DHT22;1687;49.540;8.574;2023-04-01T22:08:32;12.30;88.30
3348;DHT22;1687;49.540;8.574;2023-04-01T22:16:58;12.10;88.30
3348;DHT22;1687;49.540;8.574;2023-04-01T22:22:55;11.90;88.60
3348;DHT22;1687;49.540;8.574;2023-04-01T22:28:19;11.90;88.80
3348;DHT22;1687;49.540;8.574;2023-04-01T22:30:51;11.90;89.00
3348;DHT22;1687;49.540;8.574;2023-04-01T22:39:21;11.90;89.40
3348;DHT22;1687;49.540;8.574;2023-04-01T22:50:46;12.00;90.10
3348;DHT22;1687;49.540;8.574;2023-04-01T22:53:24;12.00;90.10
3348;DHT22;1687;49.540;8.574;2023-04-01T22:56:03;12.00;90.00
3348;DHT22;1687;49.540;8.574;2023-04-01T22:58:35;12.10;90.40
3348;DHT22;1687;49.540;8.574;2023-04-01T23:01:10;12.10;90.60
3348;DHT22;1687;49.540;8.574;2023-04-01T23:03:41;12.10;90.10
3348;DHT22;1687;49.540;8.574;2023-04-01T23:06:15;12.10;90.20
3348;DHT22;1687;49.540;8.574;2023-04-01T23:11:49;12.20;90.60
3348;DHT22;1687;49.540;8.574;2023-04-01T23:14:50;12.30;90.50
3348;DHT22;1687;49.540;8.574;2023-04-01T23:17:49;12.30;90.50
3348;DHT22;1687;49.540;8.574;2023-04-01T23:20:34;12.30;90.50
3348;DHT22;1687;49.540;8.574;2023-04-01T23:31:44;12.40;90.60
3348;DHT22;1687;49.540;8.574;2023-04-01T23:36:43;12.30;90.20
3348;DHT22;1687;49.540;8.574;2023-04-01T23:41:55;12.10;90.40
3348;DHT22;1687;49.540;8.574;2023-04-01T23:44:25;12.20;90.80
3348;DHT22;1687;49.540;8.574;2023-04-01T23:46:52;12.10;90.60
3348;DHT22;1687;49.540;8.574;2023-04-01T23:49:22;12.20;90.70
3348;DHT22;1687;49.540;8.574;2023-04-01T23:51:59;12.20;90.80
3348;DHT22;1687;49.540;8.574;2023-04-01T23:54:34;12.20;90.90
3348;DHT22;1687;49.540;8.574;2023-04-01T23:57:35;12.20;91.00
